createdAt,value
2024-01-11T00:04:56.102Z,40.73
2024-01-11T00:09:59.275Z,36.30
2024-01-11T00:15:03.825Z,39.20
2024-01-11T00:20:08.798Z,36.50
2024-01-11T00:25:11.963Z,36.03
2024-01-11T00:30:16.840Z,37.47
2024-01-11T00:35:20.244Z,41.27
2024-01-11T00:40:23.509Z,39.17
2024-01-11T00:45:27.957Z,36.40
2024-01-11T00:50:31.538Z,40.00
2024-01-11T00:55:34.665Z,37.60
2024-01-11T01:00:39.255Z,38.70
2024-01-11T01:05:42.580Z,38.80
2024-01-11T01:10:45.804Z,36.90
2024-01-11T01:15:50.362Z,37.93
2024-01-11T01:20:53.703Z,36.97
2024-01-11T01:25:57.067Z,36.50
2024-01-11T01:31:01.641Z,40.60
2024-01-11T01:36:05.392Z,41.93
2024-01-11T01:41:08.873Z,39.57
2024-01-11T01:46:16.188Z,39.93
2024-01-11T01:51:20.029Z,40.27
2024-01-11T01:56:23.671Z,43.23
2024-01-11T02:01:28.932Z,42.00
2024-01-11T02:06:35.486Z,39.60
2024-01-11T02:11:40.306Z,41.17
2024-01-11T02:16:44.811Z,39.57
2024-01-11T02:21:50.450Z,42.03
2024-01-11T02:27:02.049Z,40.37
2024-01-11T02:32:06.401Z,42.13
2024-01-11T02:37:09.702Z,43.43
2024-01-11T02:42:14.747Z,41.60
2024-01-11T02:47:18.094Z,42.33
2024-01-11T02:52:21.411Z,45.87
2024-01-11T02:57:25.867Z,44.60
2024-01-11T03:02:29.458Z,42.87
2024-01-11T03:07:33.641Z,45.67
2024-01-11T03:12:38.583Z,45.17
2024-01-11T03:17:41.803Z,42.60
2024-01-11T03:22:48.170Z,44.80
2024-01-11T03:27:52.627Z,47.00
2024-01-11T03:32:55.971Z,42.97
2024-01-11T03:37:59.497Z,48.10
2024-01-11T03:43:04.131Z,48.30
2024-01-11T03:48:08.319Z,45.13
2024-01-11T03:53:11.992Z,44.40
2024-01-11T03:58:16.458Z,47.70
2024-01-11T04:03:19.580Z,48.13
2024-01-11T04:08:22.933Z,43.63
2024-01-11T04:13:27.449Z,42.97
2024-01-11T04:18:30.819Z,39.23
2024-01-11T04:23:34.023Z,43.73
2024-01-11T04:28:38.990Z,42.57
2024-01-11T04:33:42.692Z,43.20
2024-01-11T04:38:46.815Z,39.10
2024-01-11T04:43:51.446Z,40.33
2024-01-11T04:48:55.080Z,40.07
2024-01-11T04:53:58.431Z,41.90
2024-01-11T04:59:03.022Z,39.10
2024-01-11T05:04:06.166Z,40.40
2024-01-11T05:09:09.593Z,36.77
2024-01-11T05:14:14.074Z,41.67
2024-01-11T05:19:17.340Z,39.77
2024-01-11T05:24:20.488Z,37.57
2024-01-11T05:29:25.056Z,40.50
2024-01-11T05:34:28.311Z,42.93
2024-01-11T05:39:31.781Z,39.97
2024-01-11T05:44:36.295Z,40.93
2024-01-11T05:49:39.413Z,42.77
2024-01-11T05:54:42.588Z,40.30
2024-01-11T05:59:47.422Z,42.57
2024-01-11T06:04:50.633Z,41.50
2024-01-11T06:09:54.193Z,45.70
2024-01-11T06:14:58.766Z,49.10
2024-01-11T06:20:01.988Z,47.30
2024-01-11T06:25:05.600Z,44.20
2024-01-11T06:30:11.057Z,47.90
2024-01-11T06:35:14.425Z,47.43
2024-01-11T06:40:17.581Z,51.87
2024-01-11T06:45:22.440Z,47.60
2024-01-11T06:50:25.648Z,49.57
2024-01-11T06:55:29.184Z,45.50
2024-01-11T07:00:33.713Z,52.80
2024-01-11T07:05:36.933Z,49.47
2024-01-11T07:10:40.258Z,47.90
2024-01-11T07:15:44.892Z,47.63
2024-01-11T07:20:49.013Z,54.70
2024-01-11T07:25:52.845Z,46.57
2024-01-11T07:30:57.458Z,48.40
2024-01-11T07:36:00.723Z,47.07
2024-01-11T07:41:04.351Z,49.80
2024-01-11T07:46:09.014Z,51.60
2024-01-11T07:51:12.204Z,46.17
2024-01-11T07:56:15.775Z,47.97
2024-01-11T08:01:20.983Z,45.80
2024-01-11T08:06:24.207Z,49.23
2024-01-11T08:11:29.141Z,48.57
2024-01-11T08:16:35.763Z,48.17
2024-01-11T08:21:38.860Z,45.90
2024-01-11T08:26:42.062Z,46.00
2024-01-11T08:31:47.020Z,50.07
2024-01-11T08:36:50.147Z,45.63
2024-01-11T08:41:53.671Z,48.27
2024-01-11T08:47:00.461Z,46.17
2024-01-11T08:52:04.304Z,42.27
2024-01-11T08:57:07.433Z,47.83
2024-01-11T09:02:15.833Z,45.60
2024-01-11T09:07:22.149Z,45.63
2024-01-11T09:12:25.318Z,45.00
2024-01-11T09:17:29.888Z,42.77
2024-01-11T09:22:33.739Z,43.30
2024-01-11T09:27:36.981Z,41.40
2024-01-11T09:32:41.674Z,40.43
2024-01-11T09:37:47.225Z,42.20
2024-01-11T09:42:50.756Z,41.40
2024-01-11T09:47:55.679Z,35.83
2024-01-11T09:52:59.143Z,37.27
2024-01-11T09:58:02.909Z,36.50
2024-01-11T10:03:07.528Z,36.00
2024-01-11T10:08:10.996Z,34.50
2024-01-11T10:13:14.247Z,32.67
2024-01-11T10:18:22.241Z,33.43
2024-01-11T10:23:25.943Z,32.00
2024-01-11T10:28:29.390Z,35.17
2024-01-11T10:33:36.727Z,32.80
2024-01-11T10:38:41.621Z,31.53
2024-01-11T10:43:45.779Z,33.40
2024-01-11T10:48:57.811Z,29.10
2024-01-11T10:54:03.033Z,31.00
2024-01-11T10:59:06.683Z,33.23
2024-01-11T11:04:12.845Z,33.60
2024-01-11T11:09:17.006Z,33.73
2024-01-11T11:14:21.207Z,33.13
2024-01-11T11:19:26.692Z,34.37
2024-01-11T11:24:31.073Z,31.23
2024-01-11T11:29:34.441Z,31.27
2024-01-11T11:34:45.810Z,32.47
2024-01-11T11:39:49.359Z,30.63
2024-01-11T11:44:53.290Z,28.70
2024-01-11T11:50:05.591Z,30.73
2024-01-11T11:55:10.596Z,33.03
2024-01-11T12:00:15.596Z,29.93
2024-01-11T12:05:20.802Z,30.33
2024-01-11T12:10:24.145Z,28.97
2024-01-11T12:15:29.173Z,29.67
2024-01-11T12:20:34.440Z,31.10
2024-01-11T12:25:38.195Z,29.10
2024-01-11T12:30:41.719Z,31.63
2024-01-11T12:35:46.605Z,27.97
2024-01-11T12:40:50.400Z,25.67
2024-01-11T12:45:55.421Z,27.40
2024-01-11T12:51:10.565Z,26.17
2024-01-11T12:56:23.061Z,26.30
2024-01-11T13:01:26.790Z,24.50
2024-01-11T13:06:32.548Z,22.73
2024-01-11T13:11:35.987Z,21.03
2024-01-11T13:16:39.338Z,22.40
2024-01-11T13:21:43.833Z,19.83
2024-01-11T13:26:47.015Z,19.00
2024-01-11T13:31:50.184Z,18.30
2024-01-11T13:36:54.684Z,22.60
2024-01-11T13:41:57.807Z,18.40
2024-01-11T13:47:01.332Z,21.07
2024-01-11T13:52:07.391Z,20.80
2024-01-11T13:57:10.524Z,19.50
2024-01-11T14:02:13.788Z,18.03
2024-01-11T14:07:18.402Z,19.57
2024-01-11T14:12:22.038Z,20.03
2024-01-11T14:17:25.169Z,19.37
2024-01-11T14:22:29.633Z,16.80
2024-01-11T14:27:33.131Z,19.47
2024-01-11T14:32:37.840Z,15.30
2024-01-11T14:37:43.970Z,16.87
2024-01-11T14:42:47.146Z,14.33
2024-01-11T14:47:50.779Z,14.00
2024-01-11T14:52:55.334Z,13.73
2024-01-11T14:58:00.328Z,14.37
2024-01-11T15:03:05.062Z,16.50
2024-01-11T15:08:10.270Z,17.13
2024-01-11T15:13:13.582Z,14.53
2024-01-11T15:18:16.952Z,14.27
2024-01-11T15:23:21.700Z,14.03
2024-01-11T15:28:24.884Z,21.30
2024-01-11T15:33:28.078Z,14.13
2024-01-11T15:38:32.728Z,13.23
2024-01-11T15:43:35.814Z,14.07
2024-01-11T15:48:39.076Z,13.90
2024-01-11T15:53:44.882Z,13.40
2024-01-11T15:58:48.140Z,15.50
2024-01-11T16:03:53.230Z,12.97
2024-01-11T16:08:57.882Z,14.40
2024-01-11T16:14:01.644Z,16.47
2024-01-11T16:19:04.890Z,18.17
2024-01-11T16:24:09.457Z,17.17
2024-01-11T16:29:12.629Z,17.93
2024-01-11T16:34:15.850Z,18.97
2024-01-11T16:39:20.328Z,17.67
2024-01-11T16:44:23.475Z,18.97
2024-01-11T16:49:26.616Z,18.57
2024-01-11T16:54:31.032Z,16.27
2024-01-11T16:59:36.122Z,16.13
2024-01-11T17:04:41.419Z,13.67
2024-01-11T17:09:45.884Z,15.07
2024-01-11T17:14:49.049Z,13.57
2024-01-11T17:19:52.275Z,13.87
2024-01-11T17:24:58.777Z,18.87
2024-01-11T17:30:01.982Z,21.17
2024-01-11T17:35:06.159Z,21.47
2024-01-11T17:40:12.274Z,20.30
2024-01-11T17:45:15.471Z,22.27
2024-01-11T17:50:18.620Z,22.43
2024-01-11T17:55:23.472Z,26.93
2024-01-11T18:00:30.863Z,28.10
2024-01-11T18:05:34.155Z,26.70
2024-01-11T18:10:39.425Z,43.07
2024-01-11T18:15:42.754Z,34.97
2024-01-11T18:20:46.005Z,35.77
2024-01-11T18:25:50.660Z,33.53
2024-01-11T18:30:53.881Z,25.57
2024-01-11T18:35:57.460Z,25.73
2024-01-11T18:41:02.150Z,42.53
2024-01-11T18:46:06.776Z,30.50
2024-01-11T18:51:09.994Z,25.77
2024-01-11T18:56:17.362Z,26.03
2024-01-11T19:01:26.289Z,28.70
2024-01-11T19:06:30.875Z,28.13
2024-01-11T19:11:35.488Z,27.60
2024-01-11T19:16:38.796Z,25.03
2024-01-11T19:21:41.910Z,21.80
2024-01-11T19:26:50.570Z,20.83
2024-01-11T19:31:53.742Z,19.40
2024-01-11T19:36:56.886Z,19.03
2024-01-11T19:42:01.625Z,19.83
2024-01-11T19:47:05.065Z,18.23
2024-01-11T19:52:08.238Z,20.83
2024-01-11T19:57:12.681Z,17.83
2024-01-11T20:02:15.846Z,21.97
2024-01-11T20:07:19.904Z,25.57
2024-01-11T20:12:24.504Z,20.17
2024-01-11T20:17:27.699Z,19.80
2024-01-11T20:22:30.873Z,19.67
2024-01-11T20:27:36.160Z,20.03
2024-01-11T20:32:39.708Z,21.20
2024-01-11T20:37:43.201Z,21.97
2024-01-11T20:42:47.666Z,19.73
2024-01-11T20:47:51.569Z,24.50
2024-01-11T20:52:54.827Z,21.67
2024-01-11T20:57:59.336Z,22.30
2024-01-11T21:03:02.758Z,21.83
2024-01-11T21:08:06.704Z,22.10
2024-01-11T21:13:12.798Z,19.93
2024-01-11T21:18:16.341Z,18.77
2024-01-11T21:23:19.847Z,18.20
2024-01-11T21:28:24.319Z,17.87
2024-01-11T21:33:27.498Z,17.30
2024-01-11T21:38:30.662Z,15.00
2024-01-11T21:43:35.222Z,15.53
2024-01-11T21:48:38.480Z,14.97
2024-01-11T21:53:42.682Z,18.17
2024-01-11T21:58:47.173Z,17.43
2024-01-11T22:03:50.349Z,17.27
2024-01-11T22:08:58.659Z,17.77
2024-01-11T22:14:03.923Z,15.43
2024-01-11T22:19:08.492Z,18.93
2024-01-11T22:24:11.721Z,18.03
2024-01-11T22:29:16.531Z,16.83
2024-01-11T22:34:19.819Z,17.83
2024-01-11T22:39:23.097Z,16.27
2024-01-11T22:44:28.117Z,15.70
2024-01-11T22:49:31.274Z,15.67
2024-01-11T22:54:35.173Z,15.47
2024-01-11T22:59:39.822Z,13.97
2024-01-11T23:04:42.967Z,16.70
2024-01-11T23:09:46.073Z,15.60
2024-01-11T23:14:50.639Z,13.03
2024-01-11T23:19:53.778Z,13.40
2024-01-11T23:24:56.960Z,10.87
2024-01-11T23:30:01.588Z,10.87
2024-01-11T23:35:05.206Z,10.33
2024-01-11T23:40:10.116Z,10.00
2024-01-11T23:45:14.930Z,8.87
2024-01-11T23:50:18.440Z,9.20
2024-01-11T23:55:21.851Z,9.83
